createdAt,value
2022-09-01T00:00:18.979Z,89.23
2022-09-01T00:10:25.635Z,86.73
2022-09-01T00:20:31.095Z,88.10
2022-09-01T00:30:36.848Z,88.30
2022-09-01T00:40:40.721Z,87.63
2022-09-01T00:50:50.802Z,87.27
2022-09-01T01:00:59.743Z,87.07
2022-09-01T01:11:09.436Z,86.33
2022-09-01T01:21:37.424Z,86.57
2022-09-01T01:31:43.076Z,86.17
2022-09-01T01:41:49.078Z,86.13
2022-09-01T01:51:58.029Z,88.40
2022-09-01T02:02:10.503Z,87.43
2022-09-01T02:12:19.314Z,88.17
2022-09-01T02:22:23.217Z,87.00
2022-09-01T02:32:28.577Z,86.63
2022-09-01T02:42:33.297Z,85.70
2022-09-01T02:52:40.618Z,85.97
2022-09-01T03:02:45.731Z,89.20
2022-09-01T03:12:51.234Z,85.13
2022-09-01T03:22:57.289Z,85.57
2022-09-01T03:33:04.247Z,87.50
2022-09-01T03:43:14.015Z,91.67
2022-09-01T03:53:25.501Z,91.57
2022-09-01T04:03:32.505Z,89.80
2022-09-01T04:13:42.359Z,87.97
2022-09-01T04:23:46.635Z,85.87
2022-09-01T04:33:54.255Z,85.27
2022-09-01T04:44:00.423Z,88.17
2022-09-01T04:54:12.944Z,89.37
2022-09-01T05:04:19.692Z,86.33
2022-09-01T05:14:26.422Z,89.87
2022-09-01T05:24:32.297Z,89.00
2022-09-01T05:34:43.992Z,87.23
2022-09-01T05:44:49.040Z,90.50
2022-09-01T05:55:00.384Z,90.27
2022-09-01T06:05:07.020Z,96.03
2022-09-01T06:15:16.379Z,93.67
2022-09-01T06:25:26.595Z,112.03
2022-09-01T06:35:32.606Z,96.53
2022-09-01T06:45:42.414Z,98.33
2022-09-01T06:55:50.892Z,109.97
2022-09-01T07:06:04.170Z,106.90
2022-09-01T07:16:51.822Z,111.33
2022-09-01T07:27:07.569Z,113.17
2022-09-01T07:38:02.973Z,118.82
2022-09-01T07:47:55.882Z,119.30
2022-09-01T07:58:01.693Z,125.32
2022-09-01T08:08:18.581Z,130.73
2022-09-01T08:18:24.929Z,135.63
2022-09-01T08:28:29.056Z,130.20
2022-09-01T08:38:34.896Z,146.88
2022-09-01T08:49:24.279Z,146.80
2022-09-01T08:59:15.029Z,140.68
2022-09-01T09:09:53.843Z,141.50
2022-09-01T09:19:59.402Z,147.63
2022-09-01T09:30:09.331Z,144.98
2022-09-01T09:40:17.465Z,147.02
2022-09-01T09:50:27.434Z,150.15
2022-09-01T10:00:35.138Z,140.75
2022-09-01T10:10:42.934Z,136.90
2022-09-01T10:20:56.133Z,141.50
2022-09-01T10:31:00.292Z,133.80
2022-09-01T10:41:15.921Z,128.07
2022-09-01T10:51:56.379Z,140.07
2022-09-01T11:02:26.866Z,130.15
2022-09-01T11:12:53.472Z,136.27
2022-09-01T11:23:08.960Z,151.23
2022-09-01T11:34:01.038Z,153.20
2022-09-01T11:44:16.789Z,149.05
2022-09-01T11:54:20.372Z,146.15
2022-09-01T12:04:31.985Z,140.15
2022-09-01T12:15:02.089Z,146.18
2022-09-01T12:25:00.920Z,155.95
2022-09-01T12:35:11.349Z,167.85
2022-09-01T12:45:44.045Z,161.98
2022-09-01T12:56:18.300Z,153.60
2022-09-01T13:06:23.360Z,157.10
2022-09-01T13:16:26.955Z,139.85
2022-09-01T13:26:32.021Z,141.90
2022-09-01T13:36:45.126Z,130.23
2022-09-01T13:57:16.725Z,122.70
2022-09-01T14:07:22.223Z,113.88
2022-09-01T14:17:26.502Z,119.70
2022-09-01T14:27:31.662Z,119.93
2022-09-01T14:37:36.196Z,113.40
2022-09-01T14:47:41.353Z,106.50
2022-09-01T14:57:45.257Z,118.93
2022-09-01T15:07:51.293Z,110.17
2022-09-01T15:17:55.531Z,105.60
2022-09-01T15:28:01.497Z,108.43
2022-09-01T15:38:07.211Z,113.37
2022-09-01T15:48:12.570Z,110.10
2022-09-01T15:58:19.621Z,103.13
2022-09-01T16:08:25.279Z,100.77
2022-09-01T16:18:35.342Z,107.63
2022-09-01T16:28:44.232Z,105.67
2022-09-01T16:38:52.349Z,107.97
2022-09-01T16:49:14.797Z,99.63
2022-09-01T16:59:33.459Z,100.30
2022-09-01T17:09:42.637Z,104.23
2022-09-01T17:19:52.206Z,100.30
2022-09-01T17:29:58.612Z,99.83
2022-09-01T17:40:13.661Z,98.03
2022-09-01T17:50:28.577Z,100.30
2022-09-01T18:00:41.075Z,98.90
2022-09-01T18:10:52.541Z,96.90
2022-09-01T18:21:04.256Z,98.07
2022-09-01T18:31:37.794Z,98.47
2022-09-01T18:41:56.376Z,97.23
2022-09-01T18:52:18.606Z,95.47
2022-09-01T19:02:39.719Z,95.13
2022-09-01T19:12:56.699Z,96.70
2022-09-01T19:23:07.369Z,102.33
2022-09-01T19:33:17.084Z,93.00
2022-09-01T19:43:21.971Z,91.60
2022-09-01T19:53:42.695Z,91.17
2022-09-01T20:03:50.905Z,91.70
2022-09-01T20:14:15.482Z,95.83
2022-09-01T20:24:33.608Z,92.70
2022-09-01T20:34:47.854Z,92.87
2022-09-01T20:44:59.054Z,87.70
2022-09-01T20:55:12.443Z,86.57
2022-09-01T21:05:41.332Z,86.00
2022-09-01T21:15:54.784Z,88.73
2022-09-01T21:26:00.118Z,84.53
2022-09-01T21:36:05.938Z,86.80
2022-09-01T21:46:10.990Z,83.00
2022-09-01T21:56:16.357Z,85.53
2022-09-01T22:06:23.188Z,85.27
2022-09-01T22:16:29.273Z,86.13
2022-09-01T22:26:39.594Z,85.80
2022-09-01T22:36:47.873Z,83.13
2022-09-01T22:46:52.285Z,85.00
2022-09-01T22:56:58.648Z,89.63
2022-09-01T23:07:03.412Z,90.50
2022-09-01T23:17:08.934Z,84.63
2022-09-01T23:27:12.804Z,84.10
2022-09-01T23:37:18.213Z,90.90
2022-09-01T23:47:22.026Z,89.83
2022-09-01T23:57:27.291Z,83.77
